createdAt,value
2023-04-16T00:01:08.679Z,2.60
2023-04-16T00:03:35.983Z,2.72
2023-04-16T00:06:03.281Z,2.05
2023-04-16T00:08:30.522Z,3.30
2023-04-16T00:10:57.533Z,3.30
2023-04-16T00:13:26.205Z,2.85
2023-04-16T00:15:53.282Z,2.22
2023-04-16T00:18:21.322Z,3.05
2023-04-16T00:20:48.848Z,2.97
2023-04-16T00:23:15.751Z,2.22
2023-04-16T00:25:43.067Z,2.72
2023-04-16T00:28:11.104Z,2.45
2023-04-16T00:30:38.431Z,3.42
2023-04-16T00:33:05.785Z,2.45
2023-04-16T00:35:32.743Z,2.75
2023-04-16T00:37:59.727Z,2.83
2023-04-16T00:40:30.742Z,3.15
2023-04-16T00:42:57.726Z,2.70
2023-04-16T00:45:24.891Z,2.42
2023-04-16T00:47:52.119Z,2.42
2023-04-16T00:50:19.157Z,2.65
2023-04-16T00:52:48.566Z,2.35
2023-04-16T00:55:18.692Z,3.08
2023-04-16T00:57:46.081Z,2.50
2023-04-16T01:00:13.673Z,2.67
2023-04-16T01:02:40.783Z,2.90
2023-04-16T01:05:08.333Z,2.40
2023-04-16T01:07:35.391Z,2.50
2023-04-16T01:10:03.442Z,3.20
2023-04-16T01:12:30.794Z,2.83
2023-04-16T01:14:57.834Z,2.63
2023-04-16T01:17:24.821Z,2.85
2023-04-16T01:19:52.036Z,2.80
2023-04-16T01:22:19.006Z,2.33
2023-04-16T01:24:46.329Z,2.85
2023-04-16T01:27:13.339Z,2.70
2023-04-16T01:29:40.276Z,3.10
2023-04-16T01:32:07.975Z,3.35
2023-04-16T01:34:37.127Z,2.60
2023-04-16T01:37:04.500Z,2.97
2023-04-16T01:39:31.556Z,3.38
2023-04-16T01:41:58.693Z,3.40
2023-04-16T01:44:25.715Z,2.92
2023-04-16T01:46:52.911Z,2.65
2023-04-16T01:49:21.579Z,2.65
2023-04-16T01:51:48.714Z,2.50
2023-04-16T01:54:15.796Z,2.85
2023-04-16T01:56:42.772Z,2.88
2023-04-16T01:59:10.106Z,3.13
2023-04-16T02:01:41.064Z,3.22
2023-04-16T02:04:08.737Z,2.92
2023-04-16T02:06:35.702Z,2.90
2023-04-16T02:09:02.778Z,3.35
2023-04-16T02:11:29.967Z,3.75
2023-04-16T02:13:56.991Z,3.33
2023-04-16T02:16:24.509Z,2.90
2023-04-16T02:19:04.772Z,2.55
2023-04-16T02:21:35.249Z,3.03
2023-04-16T02:24:02.408Z,3.58
2023-04-16T02:26:31.043Z,2.97
2023-04-16T02:29:03.972Z,2.30
2023-04-16T02:31:38.799Z,2.65
2023-04-16T02:34:06.657Z,3.08
2023-04-16T02:36:34.648Z,3.00
2023-04-16T02:39:01.784Z,2.75
2023-04-16T02:41:28.771Z,3.33
2023-04-16T02:43:56.466Z,3.25
2023-04-16T02:46:23.595Z,3.28
2023-04-16T02:48:50.807Z,3.33
2023-04-16T02:51:17.708Z,2.78
2023-04-16T02:53:46.183Z,3.40
2023-04-16T02:56:13.852Z,2.85
2023-04-16T02:58:41.349Z,3.38
2023-04-16T03:01:08.427Z,3.38
2023-04-16T03:03:35.664Z,3.58
2023-04-16T03:06:02.602Z,3.33
2023-04-16T03:08:29.664Z,3.67
2023-04-16T03:10:56.766Z,3.47
2023-04-16T03:13:23.678Z,4.20
2023-04-16T03:15:50.793Z,2.88
2023-04-16T03:18:17.800Z,2.67
2023-04-16T03:20:45.078Z,3.03
2023-04-16T03:23:12.397Z,3.50
2023-04-16T03:25:41.050Z,3.55
2023-04-16T03:28:09.475Z,3.00
2023-04-16T03:30:38.697Z,2.95
2023-04-16T03:33:06.802Z,3.65
2023-04-16T03:35:33.704Z,2.75
2023-04-16T03:38:01.618Z,3.08
2023-04-16T03:40:28.885Z,3.25
2023-04-16T03:42:56.329Z,2.67
2023-04-16T03:45:23.276Z,3.08
2023-04-16T03:47:53.039Z,3.58
2023-04-16T03:50:23.162Z,2.75
2023-04-16T03:52:50.145Z,3.88
2023-04-16T03:55:18.035Z,4.28
2023-04-16T03:57:46.602Z,3.42
2023-04-16T04:00:15.922Z,3.47
2023-04-16T04:02:57.155Z,2.63
2023-04-16T04:05:24.519Z,3.53
2023-04-16T04:07:52.564Z,2.97
2023-04-16T04:10:19.919Z,2.47
2023-04-16T04:12:47.060Z,3.35
2023-04-16T04:15:14.161Z,3.10
2023-04-16T04:17:42.760Z,3.47
2023-04-16T04:20:10.363Z,2.80
2023-04-16T04:22:37.340Z,3.00
2023-04-16T04:25:04.672Z,2.83
2023-04-16T04:27:33.048Z,3.42
2023-04-16T04:30:00.172Z,2.55
2023-04-16T04:32:28.023Z,3.33
2023-04-16T04:34:54.934Z,3.42
2023-04-16T04:37:22.047Z,2.72
2023-04-16T04:39:49.030Z,3.72
2023-04-16T04:42:19.583Z,3.13
2023-04-16T04:44:46.787Z,3.53
2023-04-16T04:47:15.106Z,4.20
2023-04-16T04:49:42.054Z,3.92
2023-04-16T04:52:09.149Z,5.00
2023-04-16T04:54:36.228Z,3.35
2023-04-16T04:57:03.297Z,3.25
2023-04-16T04:59:30.936Z,3.75
2023-04-16T05:01:58.145Z,4.15
2023-04-16T05:04:25.673Z,2.45
2023-04-16T05:06:52.658Z,2.95
2023-04-16T05:09:19.559Z,2.47
2023-04-16T05:11:46.459Z,3.25
2023-04-16T05:14:13.787Z,3.45
2023-04-16T05:16:40.914Z,3.17
2023-04-16T05:19:08.342Z,2.88
2023-04-16T05:21:36.005Z,3.50
2023-04-16T05:24:03.017Z,2.63
2023-04-16T05:26:30.041Z,2.83
2023-04-16T05:28:56.994Z,3.00
2023-04-16T05:31:24.025Z,3.70
2023-04-16T05:33:51.129Z,3.55
2023-04-16T05:36:18.241Z,2.97
2023-04-16T05:38:45.330Z,3.03
2023-04-16T05:41:12.283Z,3.55
2023-04-16T05:43:39.451Z,2.85
2023-04-16T05:46:06.643Z,2.97
2023-04-16T05:48:33.718Z,3.95
2023-04-16T05:51:02.355Z,3.00
2023-04-16T05:53:29.379Z,3.67
2023-04-16T05:55:56.321Z,3.45
2023-04-16T05:58:23.395Z,3.47
2023-04-16T06:00:50.390Z,3.03
2023-04-16T06:03:17.522Z,3.03
2023-04-16T06:05:45.011Z,3.45
2023-04-16T06:08:12.188Z,4.20
2023-04-16T06:10:39.539Z,3.22
2023-04-16T06:13:06.666Z,3.92
2023-04-16T06:15:33.714Z,3.40
2023-04-16T06:18:01.084Z,3.47
2023-04-16T06:20:28.387Z,3.15
2023-04-16T06:22:56.396Z,3.15
2023-04-16T06:25:23.505Z,3.25
2023-04-16T06:27:50.609Z,2.60
2023-04-16T06:30:20.166Z,2.17
2023-04-16T06:32:48.129Z,3.20
2023-04-16T06:35:15.247Z,3.17
2023-04-16T06:37:42.199Z,2.20
2023-04-16T06:40:09.553Z,3.67
2023-04-16T06:42:36.759Z,3.05
2023-04-16T06:45:04.540Z,3.33
2023-04-16T06:47:31.864Z,3.40
2023-04-16T06:49:58.891Z,3.30
2023-04-16T06:52:26.300Z,3.15
2023-04-16T06:54:53.206Z,3.17
2023-04-16T06:57:20.222Z,2.92
2023-04-16T06:59:47.142Z,3.42
2023-04-16T07:02:14.447Z,3.60
2023-04-16T07:04:41.431Z,2.83
2023-04-16T07:07:09.115Z,3.28
2023-04-16T07:09:36.703Z,3.38
2023-04-16T07:12:03.686Z,3.88
2023-04-16T07:14:30.900Z,3.35
2023-04-16T07:16:58.072Z,3.53
2023-04-16T07:19:25.851Z,3.80
2023-04-16T07:21:52.833Z,3.60
2023-04-16T07:24:19.806Z,3.35
2023-04-16T07:26:46.777Z,3.45
2023-04-16T07:29:13.808Z,3.67
2023-04-16T07:31:40.939Z,3.03
2023-04-16T07:34:08.059Z,4.35
2023-04-16T07:36:35.106Z,3.33
2023-04-16T07:39:02.260Z,3.17
2023-04-16T07:41:31.923Z,3.85
2023-04-16T07:43:59.106Z,4.25
2023-04-16T07:46:30.439Z,3.70
2023-04-16T07:49:03.159Z,3.63
2023-04-16T07:51:30.137Z,3.05
2023-04-16T07:53:57.068Z,2.78
2023-04-16T07:56:24.142Z,3.08
2023-04-16T07:58:51.352Z,2.78
2023-04-16T08:01:18.450Z,2.85
2023-04-16T08:03:45.787Z,3.22
2023-04-16T08:06:12.944Z,3.17
2023-04-16T08:08:39.952Z,3.90
2023-04-16T08:11:07.244Z,3.22
2023-04-16T08:13:34.307Z,2.97
2023-04-16T08:16:02.165Z,3.45
2023-04-16T08:18:29.308Z,3.35
2023-04-16T08:20:56.703Z,3.03
2023-04-16T08:23:23.731Z,2.83
2023-04-16T08:25:52.931Z,2.67
2023-04-16T08:28:20.240Z,3.72
2023-04-16T08:30:47.109Z,2.85
2023-04-16T08:33:14.365Z,2.90
2023-04-16T08:35:41.550Z,4.07
2023-04-16T08:38:08.636Z,3.75
2023-04-16T08:40:39.937Z,3.53
2023-04-16T08:43:13.901Z,3.70
2023-04-16T08:45:45.055Z,3.72
2023-04-16T08:48:12.330Z,3.40
2023-04-16T08:50:41.447Z,4.07
2023-04-16T08:53:16.265Z,3.53
2023-04-16T08:55:51.544Z,4.15
2023-04-16T08:58:19.665Z,2.97
2023-04-16T09:00:48.038Z,3.25
2023-04-16T09:03:15.690Z,3.78
2023-04-16T09:05:44.013Z,3.67
2023-04-16T09:08:10.889Z,4.03
2023-04-16T09:10:37.963Z,3.88
2023-04-16T09:13:04.991Z,2.90
2023-04-16T09:15:34.002Z,3.63
2023-04-16T09:18:02.244Z,3.90
2023-04-16T09:20:29.418Z,3.13
2023-04-16T09:22:57.259Z,3.05
2023-04-16T09:25:25.245Z,4.35
2023-04-16T09:27:52.833Z,4.18
2023-04-16T09:30:27.316Z,3.88
2023-04-16T09:33:22.989Z,5.72
2023-04-16T09:35:54.086Z,5.53
2023-04-16T09:38:21.397Z,3.83
2023-04-16T09:40:48.596Z,4.18
2023-04-16T09:43:17.967Z,5.05
2023-04-16T09:45:52.587Z,3.97
2023-04-16T09:48:30.104Z,4.15
2023-04-16T09:50:58.028Z,3.22
2023-04-16T09:53:26.833Z,2.90
2023-04-16T09:56:01.754Z,3.47
2023-04-16T09:58:29.791Z,3.25
2023-04-16T10:01:03.536Z,3.50
2023-04-16T10:03:32.314Z,3.95
2023-04-16T10:06:19.981Z,3.40
2023-04-16T10:08:51.226Z,2.85
2023-04-16T10:11:19.572Z,3.78
2023-04-16T10:13:46.755Z,3.25
2023-04-16T10:16:13.841Z,2.97
2023-04-16T10:18:43.017Z,3.10
2023-04-16T10:21:13.408Z,3.42
2023-04-16T10:23:40.929Z,3.22
2023-04-16T10:26:08.457Z,2.72
2023-04-16T10:28:36.396Z,4.50
2023-04-16T10:31:08.789Z,4.07
2023-04-16T10:33:39.996Z,4.50
2023-04-16T10:36:17.623Z,4.43
2023-04-16T10:38:50.132Z,3.47
2023-04-16T10:41:17.542Z,3.15
2023-04-16T10:43:46.969Z,3.92
2023-04-16T10:46:22.909Z,4.28
2023-04-16T10:48:52.696Z,2.95
2023-04-16T10:51:36.486Z,3.45
2023-04-16T10:54:10.191Z,3.67
2023-04-16T10:56:37.671Z,3.30
2023-04-16T10:59:06.597Z,3.65
2023-04-16T11:01:36.438Z,3.10
2023-04-16T11:04:22.313Z,3.20
2023-04-16T11:07:04.516Z,3.97
2023-04-16T11:09:59.489Z,3.88
2023-04-16T11:12:29.847Z,3.17
2023-04-16T11:15:08.619Z,2.67
2023-04-16T11:17:45.047Z,2.78
2023-04-16T11:20:26.553Z,3.10
2023-04-16T11:22:58.045Z,3.35
2023-04-16T11:25:30.307Z,3.13
2023-04-16T11:28:01.306Z,3.03
2023-04-16T11:30:34.163Z,4.60
2023-04-16T11:33:11.520Z,2.88
2023-04-16T11:35:39.760Z,3.15
2023-04-16T11:38:07.702Z,3.58
2023-04-16T11:40:36.070Z,4.03
2023-04-16T11:43:05.058Z,4.03
2023-04-16T11:45:32.114Z,3.33
2023-04-16T11:47:59.111Z,3.80
2023-04-16T11:50:28.357Z,3.13
2023-04-16T11:53:03.105Z,2.95
2023-04-16T11:55:30.143Z,3.30
2023-04-16T11:57:57.302Z,3.47
2023-04-16T12:00:25.035Z,3.78
2023-04-16T12:02:55.572Z,3.25
2023-04-16T12:05:38.997Z,3.45
2023-04-16T12:08:11.338Z,3.25
2023-04-16T12:10:54.227Z,3.40
2023-04-16T12:13:21.588Z,3.60
2023-04-16T12:15:50.760Z,3.95
2023-04-16T12:18:20.383Z,4.55
2023-04-16T12:20:47.810Z,3.72
2023-04-16T12:23:26.532Z,4.35
2023-04-16T12:25:54.757Z,3.88
2023-04-16T12:28:36.808Z,3.65
2023-04-16T12:31:05.038Z,3.90
2023-04-16T12:33:32.340Z,4.03
2023-04-16T12:35:59.765Z,4.07
2023-04-16T12:38:28.970Z,4.07
2023-04-16T12:40:57.846Z,4.50
2023-04-16T12:43:25.895Z,3.67
2023-04-16T12:45:53.074Z,4.47
2023-04-16T12:48:20.286Z,3.65
2023-04-16T12:50:47.525Z,3.83
2023-04-16T12:53:14.654Z,4.47
2023-04-16T12:55:43.287Z,3.70
2023-04-16T12:58:12.457Z,3.90
2023-04-16T13:00:40.756Z,4.75
2023-04-16T13:03:08.063Z,4.63
2023-04-16T13:05:35.591Z,5.03
2023-04-16T13:08:02.891Z,4.43
2023-04-16T13:10:30.458Z,5.28
2023-04-16T13:12:57.519Z,4.90
2023-04-16T13:15:24.550Z,4.65
2023-04-16T13:17:51.641Z,5.20
2023-04-16T13:20:18.669Z,5.45
2023-04-16T13:22:45.867Z,4.47
2023-04-16T13:25:12.854Z,4.20
2023-04-16T13:27:39.922Z,3.80
2023-04-16T13:30:07.910Z,3.28
2023-04-16T13:32:35.062Z,3.88
2023-04-16T13:35:02.105Z,4.40
2023-04-16T13:37:30.104Z,3.50
2023-04-16T13:39:57.149Z,3.58
2023-04-16T13:42:24.181Z,3.72
2023-04-16T13:44:54.262Z,4.72
2023-04-16T13:47:21.374Z,3.88
2023-04-16T13:49:48.628Z,4.20
2023-04-16T13:52:15.805Z,3.53
2023-04-16T13:54:42.905Z,4.50
2023-04-16T13:57:20.004Z,4.07
2023-04-16T13:59:47.186Z,5.03
2023-04-16T14:02:14.316Z,3.65
2023-04-16T14:04:41.733Z,4.00
2023-04-16T14:07:08.678Z,3.72
2023-04-16T14:09:35.877Z,4.75
2023-04-16T14:12:02.986Z,4.25
2023-04-16T14:14:30.238Z,4.40
2023-04-16T14:16:58.869Z,3.90
2023-04-16T14:19:25.987Z,4.18
2023-04-16T14:21:52.941Z,5.35
2023-04-16T14:24:20.167Z,5.43
2023-04-16T14:26:47.172Z,4.78
2023-04-16T14:29:14.291Z,5.38
2023-04-16T14:31:41.796Z,4.97
2023-04-16T14:34:08.767Z,4.90
2023-04-16T14:36:37.038Z,4.60
2023-04-16T14:39:04.850Z,3.83
2023-04-16T14:41:31.884Z,4.40
2023-04-16T14:43:59.607Z,6.00
2023-04-16T14:46:27.165Z,4.22
2023-04-16T14:48:54.169Z,4.75
2023-04-16T14:51:21.266Z,4.43
2023-04-16T14:53:48.281Z,4.10
2023-04-16T14:56:15.636Z,3.88
2023-04-16T14:58:43.552Z,3.97
2023-04-16T15:01:10.648Z,3.75
2023-04-16T15:03:38.109Z,3.55
2023-04-16T15:06:05.880Z,4.80
2023-04-16T15:08:33.076Z,4.38
2023-04-16T15:11:00.119Z,3.88
2023-04-16T15:13:33.781Z,4.70
2023-04-16T15:16:06.959Z,4.20
2023-04-16T15:18:34.059Z,4.22
2023-04-16T15:21:04.435Z,4.20
2023-04-16T15:23:31.718Z,5.28
2023-04-16T15:25:58.796Z,5.25
2023-04-16T15:28:26.044Z,4.32
2023-04-16T15:30:53.236Z,4.18
2023-04-16T15:34:42.587Z,3.28
2023-04-16T15:37:15.933Z,4.68
2023-04-16T15:39:43.225Z,4.70
2023-04-16T15:42:11.765Z,4.18
2023-04-16T15:44:39.039Z,3.92
2023-04-16T15:47:07.998Z,3.97
2023-04-16T15:49:35.681Z,3.88
2023-04-16T15:52:03.067Z,4.28
2023-04-16T15:54:31.944Z,4.25
2023-04-16T15:56:59.544Z,4.78
2023-04-16T15:59:27.101Z,4.13
2023-04-16T16:01:54.291Z,5.75
2023-04-16T16:04:26.496Z,5.00
2023-04-16T16:06:54.337Z,4.90
2023-04-16T16:09:26.254Z,6.95
2023-04-16T16:11:58.032Z,5.07
2023-04-16T16:14:26.908Z,4.35
2023-04-16T16:16:54.119Z,4.97
2023-04-16T16:19:21.274Z,4.97
2023-04-16T16:21:48.373Z,5.28
2023-04-16T16:24:15.690Z,5.22
2023-04-16T16:26:42.704Z,4.55
2023-04-16T16:29:10.041Z,5.45
2023-04-16T16:31:37.551Z,6.97
2023-04-16T16:34:04.578Z,5.55
2023-04-16T16:36:34.321Z,4.68
2023-04-16T16:39:02.064Z,3.90
2023-04-16T16:41:29.049Z,3.63
2023-04-16T16:43:56.428Z,4.55
2023-04-16T16:46:23.564Z,4.40
2023-04-16T16:48:50.567Z,4.13
2023-04-16T16:51:18.993Z,5.28
2023-04-16T16:53:46.605Z,4.60
2023-04-16T16:56:13.633Z,5.40
2023-04-16T16:58:40.794Z,5.65
2023-04-16T17:01:13.111Z,4.80
2023-04-16T17:03:40.829Z,5.10
2023-04-16T17:06:08.051Z,5.32
2023-04-16T17:08:34.951Z,4.82
2023-04-16T17:11:04.243Z,5.18
2023-04-16T17:13:32.851Z,6.80
2023-04-16T17:16:00.000Z,8.27
2023-04-16T17:18:27.055Z,8.77
2023-04-16T17:20:54.376Z,6.63
2023-04-16T17:23:24.499Z,7.10
2023-04-16T17:25:55.863Z,6.47
2023-04-16T17:28:23.994Z,8.18
2023-04-16T17:30:56.325Z,6.60
2023-04-16T17:33:23.402Z,6.55
2023-04-16T17:35:55.041Z,5.68
2023-04-16T17:38:23.272Z,6.05
2023-04-16T17:40:50.367Z,5.32
2023-04-16T17:43:17.314Z,6.35
2023-04-16T17:45:44.298Z,5.53
2023-04-16T17:48:12.130Z,5.50
2023-04-16T17:50:39.733Z,6.30
2023-04-16T17:53:06.861Z,4.97
2023-04-16T17:55:33.995Z,5.38
2023-04-16T17:58:02.737Z,5.97
2023-04-16T18:00:35.127Z,5.13
2023-04-16T18:03:02.925Z,6.20
2023-04-16T18:05:31.012Z,5.70
2023-04-16T18:08:00.753Z,7.32
2023-04-16T18:10:32.791Z,7.80
2023-04-16T18:12:59.870Z,6.88
2023-04-16T18:15:26.898Z,8.10
2023-04-16T18:17:54.509Z,6.70
2023-04-16T18:20:21.676Z,5.47
2023-04-16T18:22:48.725Z,6.13
2023-04-16T18:25:16.234Z,5.93
2023-04-16T18:27:45.751Z,5.28
2023-04-16T18:30:22.970Z,5.75
2023-04-16T18:33:25.485Z,6.22
2023-04-16T18:35:44.630Z,5.88
2023-04-16T18:38:13.619Z,5.03
2023-04-16T18:40:41.695Z,4.88
2023-04-16T18:43:08.645Z,6.10
2023-04-16T18:45:36.301Z,6.30
2023-04-16T18:48:04.316Z,6.22
2023-04-16T18:50:31.354Z,6.68
2023-04-16T18:52:58.385Z,6.50
2023-04-16T18:55:25.457Z,6.03
2023-04-16T18:57:53.241Z,6.03
2023-04-16T19:00:20.642Z,6.22
2023-04-16T19:02:48.015Z,7.18
2023-04-16T19:05:15.174Z,7.05
2023-04-16T19:07:42.147Z,6.60
2023-04-16T19:10:09.452Z,6.57
2023-04-16T19:12:36.573Z,7.28
2023-04-16T19:15:04.275Z,6.65
2023-04-16T19:17:31.569Z,5.60
2023-04-16T19:19:58.725Z,7.07
2023-04-16T19:22:25.717Z,5.78
2023-04-16T19:24:54.708Z,6.45
2023-04-16T19:27:21.680Z,6.28
2023-04-16T19:29:48.647Z,6.32
2023-04-16T19:32:15.798Z,5.65
2023-04-16T19:34:42.875Z,6.45
2023-04-16T19:37:09.885Z,6.25
2023-04-16T19:39:37.230Z,5.38
2023-04-16T19:42:04.688Z,5.40
2023-04-16T19:44:32.484Z,6.57
2023-04-16T19:46:59.804Z,7.05
2023-04-16T19:49:34.363Z,7.33
2023-04-16T19:52:01.748Z,5.80
2023-04-16T19:54:29.355Z,5.82
2023-04-16T19:56:57.184Z,7.53
2023-04-16T19:59:25.205Z,7.35
2023-04-16T20:01:52.224Z,6.47
2023-04-16T20:04:19.315Z,6.43
2023-04-16T20:06:46.686Z,6.53
2023-04-16T20:09:13.851Z,6.75
2023-04-16T20:11:41.293Z,6.88
2023-04-16T20:14:08.282Z,6.90
2023-04-16T20:16:38.714Z,6.75
2023-04-16T20:19:08.488Z,7.13
2023-04-16T20:21:36.119Z,7.53
2023-04-16T20:24:03.007Z,7.13
2023-04-16T20:26:34.230Z,7.93
2023-04-16T20:29:01.585Z,8.73
2023-04-16T20:31:29.413Z,7.90
2023-04-16T20:33:56.672Z,7.97
2023-04-16T20:36:23.650Z,8.45
2023-04-16T20:38:53.831Z,8.77
2023-04-16T20:41:21.493Z,9.05
2023-04-16T20:43:50.420Z,9.55
2023-04-16T20:46:17.877Z,8.13
2023-04-16T20:48:44.932Z,9.38
2023-04-16T20:51:11.885Z,9.70
2023-04-16T20:53:38.965Z,9.43
2023-04-16T20:56:07.080Z,10.32
2023-04-16T20:58:34.184Z,9.90
2023-04-16T21:01:01.867Z,8.90
2023-04-16T21:03:29.021Z,8.93
2023-04-16T21:05:56.110Z,9.05
2023-04-16T21:08:24.526Z,9.93
2023-04-16T21:10:51.601Z,10.98
2023-04-16T21:13:18.893Z,9.50
2023-04-16T21:15:46.399Z,9.98
2023-04-16T21:18:13.413Z,10.45
2023-04-16T21:20:40.569Z,10.52
2023-04-16T21:23:07.804Z,10.70
2023-04-16T21:25:34.707Z,9.98
2023-04-16T21:28:01.778Z,10.30
2023-04-16T21:30:28.768Z,11.15
2023-04-16T21:32:55.965Z,10.27
2023-04-16T21:35:22.911Z,10.68
2023-04-16T21:37:49.848Z,12.20
2023-04-16T21:40:16.939Z,11.55
2023-04-16T21:42:44.646Z,10.75
2023-04-16T21:45:11.841Z,13.10
2023-04-16T21:47:38.938Z,10.32
2023-04-16T21:50:06.589Z,10.18
2023-04-16T21:52:33.564Z,12.02
2023-04-16T21:55:00.831Z,11.73
2023-04-16T21:57:27.825Z,10.75
2023-04-16T21:59:55.103Z,10.45
2023-04-16T22:02:22.132Z,11.35
2023-04-16T22:04:49.248Z,11.07
2023-04-16T22:07:16.999Z,9.85
2023-04-16T22:09:44.220Z,9.65
2023-04-16T22:12:11.275Z,10.10
2023-04-16T22:14:43.973Z,10.02
2023-04-16T22:17:13.330Z,9.10
2023-04-16T22:19:40.491Z,10.07
2023-04-16T22:22:07.742Z,9.77
2023-04-16T22:24:34.788Z,9.10
2023-04-16T22:27:02.447Z,9.70
2023-04-16T22:29:29.442Z,8.90
2023-04-16T22:31:56.463Z,8.13
2023-04-16T22:34:23.428Z,8.73
2023-04-16T22:36:50.426Z,9.63
2023-04-16T22:39:17.610Z,8.98
2023-04-16T22:41:44.636Z,9.95
2023-04-16T22:44:11.582Z,9.05
2023-04-16T22:46:38.642Z,9.45
2023-04-16T22:49:05.666Z,11.52
2023-04-16T22:51:32.602Z,8.50
2023-04-16T22:53:59.632Z,9.38
2023-04-16T22:56:28.937Z,8.30
2023-04-16T22:58:56.060Z,9.77
2023-04-16T23:01:24.003Z,8.38
2023-04-16T23:03:51.049Z,10.27
2023-04-16T23:06:18.242Z,8.38
2023-04-16T23:08:45.375Z,9.63
2023-04-16T23:11:12.247Z,9.45
2023-04-16T23:13:39.309Z,9.52
2023-04-16T23:16:07.038Z,9.48
2023-04-16T23:18:33.948Z,9.23
2023-04-16T23:21:00.853Z,8.25
2023-04-16T23:23:28.028Z,9.45
2023-04-16T23:25:55.134Z,9.98
2023-04-16T23:28:22.538Z,8.02
2023-04-16T23:30:55.794Z,8.77
2023-04-16T23:33:22.697Z,9.18
2023-04-16T23:35:49.992Z,8.20
2023-04-16T23:38:17.072Z,8.45
2023-04-16T23:40:44.120Z,8.70
2023-04-16T23:43:11.095Z,9.50
2023-04-16T23:45:38.140Z,10.40
2023-04-16T23:48:05.554Z,10.40
2023-04-16T23:50:32.742Z,10.13
2023-04-16T23:52:59.790Z,9.43
2023-04-16T23:55:26.724Z,9.48
2023-04-16T23:57:53.828Z,9.07
